Time,TemperatureF,DewpointF,PressureIn,WindDirection,WindDirectionDegrees,WindSpeedMPH,WindSpeedGustMPH,Humidity,HourlyPrecipIn,Conditions,Clouds,dailyrainin,SoftwareType,DateUTC
2013-04-08 00:58:00,62.3,47.2,30.06,South,189,2.6,4.8,57,0.00,,,0.00,Meteorologica,2013-04-08 04:58:00,
2013-04-08 01:00:00,65.4,51.0,30.08,WSW,241,0.0,0.0,59,0.00,,,0.00,Meteorologica,2013-04-08 05:00:00,
2013-04-08 01:01:00,65.3,50.9,30.08,WSW,241,0.0,0.0,59,0.00,,,0.00,Meteorologica,2013-04-08 05:01:00,
2013-04-08 01:02:00,65.3,51.0,30.08,WSW,241,0.0,0.0,59,0.00,,,0.00,Meteorologica,2013-04-08 05:02:00,
2013-04-08 01:03:00,62.3,47.3,30.06,SSW,196,3.0,5.8,57,0.00,,,0.00,Meteorologica,2013-04-08 05:03:00,
2013-04-08 01:04:00,65.2,51.0,30.08,WSW,241,0.0,0.0,59,0.00,,,0.00,Meteorologica,2013-04-08 05:04:00,
2013-04-08 01:05:00,65.4,51.2,30.08,WSW,241,0.0,0.0,59,0.00,,,0.00,Meteorologica,2013-04-08 05:05:00,
2013-04-08 01:06:00,65.1,51.0,30.08,WSW,241,0.0,0.0,59,0.00,,,0.00,Meteorologica,2013-04-08 05:06:00,
2013-04-08 01:07:00,65.2,51.1,30.08,WSW,241,0.0,0.0,59,0.00,,,0.00,Meteorologica,2013-04-08 05:07:00,
2013-04-08 01:08:00,62.3,47.4,30.06,SSW,200,2.4,6.3,57,0.00,,,0.00,Meteorologica,2013-04-08 05:08:00,
2013-04-08 01:09:00,65.1,51.1,30.08,WSW,254,0.7,0.0,60,0.00,,,0.00,Meteorologica,2013-04-08 05:09:00,
2013-04-08 01:10:00,65.1,51.1,30.08,WSW,241,0.1,2.8,60,0.00,,,0.00,Meteorologica,2013-04-08 05:10:00,
2013-04-08 01:11:00,65.0,51.0,30.08,WSW,241,0.0,2.8,60,0.00,,,0.00,Meteorologica,2013-04-08 05:11:00,
2013-04-08 01:12:00,65.1,51.1,30.08,WSW,241,0.0,2.8,60,0.00,,,0.00,Meteorologica,2013-04-08 05:12:00,
2013-04-08 01:13:00,62.3,47.4,30.06,SSW,212,3.2,4.8,57,0.00,,,0.00,Meteorologica,2013-04-08 05:13:00,
2013-04-08 01:14:00,65.0,51.1,30.08,WSW,241,0.0,2.8,60,0.00,,,0.00,Meteorologica,2013-04-08 05:14:00,
2013-04-08 01:15:00,65.0,51.1,30.08,WSW,241,0.0,0.0,60,0.00,,,0.00,Meteorologica,2013-04-08 05:15:00,
2013-04-08 01:16:00,64.9,51.0,30.08,WSW,241,0.0,0.0,60,0.00,,,0.00,Meteorologica,2013-04-08 05:16:00,
2013-04-08 01:17:00,64.9,51.0,30.08,WSW,241,0.0,0.0,60,0.00,,,0.00,Meteorologica,2013-04-08 05:17:00,
2013-04-08 01:18:00,62.3,47.5,30.06,SSW,208,2.7,5.9,58,0.00,,,0.00,Meteorologica,2013-04-08 05:18:00,
2013-04-08 01:19:00,65.0,51.2,30.08,WSW,241,0.0,0.0,60,0.00,,,0.00,Meteorologica,2013-04-08 05:19:00,
2013-04-08 01:20:00,65.0,51.2,30.08,WSW,241,0.0,0.0,60,0.00,,,0.00,Meteorologica,2013-04-08 05:20:00,
2013-04-08 01:21:00,65.0,51.2,30.08,WSW,241,0.0,0.0,60,0.00,,,0.00,Meteorologica,2013-04-08 05:21:00,
2013-04-08 01:22:00,64.9,51.1,30.08,WSW,241,0.0,0.0,60,0.00,,,0.00,Meteorologica,2013-04-08 05:22:00,
2013-04-08 01:23:00,62.3,47.5,30.06,SSW,201,2.6,5.2,58,0.00,,,0.00,Meteorologica,2013-04-08 05:23:00,
2013-04-08 01:24:00,64.8,51.1,30.08,WSW,241,0.0,0.0,60,0.00,,,0.00,Meteorologica,2013-04-08 05:24:00,
2013-04-08 01:25:00,64.8,51.1,30.08,WSW,241,0.0,0.0,60,0.00,,,0.00,Meteorologica,2013-04-08 05:25:00,
2013-04-08 01:26:00,64.8,51.1,30.08,WSW,241,0.0,0.0,60,0.00,,,0.00,Meteorologica,2013-04-08 05:26:00,
2013-04-08 01:27:00,64.8,51.1,30.08,WSW,241,0.0,0.0,60,0.00,,,0.00,Meteorologica,2013-04-08 05:27:00,
2013-04-08 01:28:00,62.1,47.3,30.06,SSW,195,3.3,5.4,58,0.00,,,0.00,Meteorologica,2013-04-08 05:28:00,
2013-04-08 01:29:00,64.7,51.1,30.08,WSW,241,0.0,0.0,60,0.00,,,0.00,Meteorologica,2013-04-08 05:29:00,
2013-04-08 01:30:00,64.7,51.1,30.08,WSW,241,0.0,0.0,60,0.00,,,0.00,Meteorologica,2013-04-08 05:30:00,
2013-04-08 01:31:00,64.7,51.1,30.08,WSW,247,0.3,0.0,61,0.00,,,0.00,Meteorologica,2013-04-08 05:31:00,
2013-04-08 01:32:00,64.7,51.1,30.08,WSW,252,1.4,0.0,61,0.00,,,0.00,Meteorologica,2013-04-08 05:32:00,
2013-04-08 01:33:00,62.1,47.4,30.06,South,178,2.3,4.1,58,0.00,,,0.00,Meteorologica,2013-04-08 05:33:00,
2013-04-08 01:34:00,64.7,51.1,30.08,WSW,252,1.1,0.0,61,0.00,,,0.00,Meteorologica,2013-04-08 05:34:00,
2013-04-08 01:35:00,64.7,51.1,30.08,WSW,248,1.4,2.7,61,0.00,,,0.00,Meteorologica,2013-04-08 05:35:00,
2013-04-08 01:36:00,64.8,51.2,30.08,SW,228,1.4,2.7,61,0.00,,,0.00,Meteorologica,2013-04-08 05:36:00,
2013-04-08 01:37:00,64.7,51.2,30.08,WSW,251,1.1,2.7,61,0.00,,,0.00,Meteorologica,2013-04-08 05:37:00,
2013-04-08 01:38:00,62.0,47.3,30.06,SSW,199,2.2,5.1,58,0.00,,,0.00,Meteorologica,2013-04-08 05:38:00,
2013-04-08 01:39:00,64.6,51.1,30.08,WSW,247,0.9,2.7,61,0.00,,,0.00,Meteorologica,2013-04-08 05:39:00,
2013-04-08 01:40:00,64.6,51.2,30.08,WSW,244,0.7,2.7,61,0.00,,,0.00,Meteorologica,2013-04-08 05:40:00,
2013-04-08 01:41:00,64.6,51.2,30.08,WSW,244,0.0,2.7,61,0.00,,,0.00,Meteorologica,2013-04-08 05:41:00,
2013-04-08 01:42:00,64.6,51.2,30.08,WSW,244,0.0,2.7,61,0.00,,,0.00,Meteorologica,2013-04-08 05:42:00,
2013-04-08 01:43:00,62.0,47.4,30.06,SSW,192,2.9,5.1,58,0.00,,,0.00,Meteorologica,2013-04-08 05:43:00,
2013-04-08 01:44:00,64.6,51.2,30.08,WSW,244,0.0,2.7,61,0.00,,,0.00,Meteorologica,2013-04-08 05:44:00,
2013-04-08 01:45:00,64.6,51.3,30.08,WSW,244,0.0,0.0,61,0.00,,,0.00,Meteorologica,2013-04-08 05:45:00,
2013-04-08 01:46:00,64.4,51.1,30.08,WSW,244,0.0,0.0,61,0.00,,,0.00,Meteorologica,2013-04-08 05:46:00,
2013-04-08 01:47:00,64.4,51.1,30.08,WSW,248,0.6,0.0,61,0.00,,,0.00,Meteorologica,2013-04-08 05:47:00,
2013-04-08 01:48:00,62.1,47.5,30.06,South,183,2.9,5.5,58,0.00,,,0.00,Meteorologica,2013-04-08 05:48:00,
2013-04-08 01:49:00,64.4,51.1,30.08,SW,232,0.5,0.0,61,0.00,,,0.00,Meteorologica,2013-04-08 05:49:00,
2013-04-08 01:50:00,64.4,51.1,30.08,SW,232,0.0,2.7,61,0.00,,,0.00,Meteorologica,2013-04-08 05:50:00,
2013-04-08 01:51:00,64.4,51.1,30.08,SW,232,0.0,2.7,61,0.00,,,0.00,Meteorologica,2013-04-08 05:51:00,
2013-04-08 01:52:00,64.3,51.0,30.08,SW,232,0.0,2.7,61,0.00,,,0.00,Meteorologica,2013-04-08 05:52:00,
2013-04-08 01:53:00,62.0,47.4,30.06,SSW,204,1.6,5.2,58,0.00,,,0.00,Meteorologica,2013-04-08 05:53:00,
2013-04-08 01:54:00,64.3,51.0,30.08,SW,232,0.0,2.7,61,0.00,,,0.00,Meteorologica,2013-04-08 05:54:00,
2013-04-08 01:55:00,64.2,50.9,30.08,SW,232,0.0,0.0,61,0.00,,,0.00,Meteorologica,2013-04-08 05:55:00,
2013-04-08 01:56:00,64.3,51.0,30.08,SW,232,0.0,0.0,61,0.00,,,0.00,Meteorologica,2013-04-08 05:56:00,
2013-04-08 01:57:00,64.2,51.0,30.08,SW,232,0.0,0.0,61,0.00,,,0.00,Meteorologica,2013-04-08 05:57:00,
2013-04-08 01:58:00,62.0,47.5,30.06,SSE,166,1.4,4.7,58,0.00,,,0.00,Meteorologica,2013-04-08 05:58:00,
2013-04-08 01:59:00,64.3,51.2,30.08,SW,232,0.0,0.0,62,0.00,,,0.00,Meteorologica,2013-04-08 05:59:00,
2013-04-08 02:03:00,61.8,47.3,30.06,SSW,201,0.6,3.7,58,0.00,,,0.00,Meteorologica,2013-04-08 06:03:00,
2013-04-08 02:08:00,61.7,47.3,30.06,SW,214,1.4,3.5,58,0.00,,,0.00,Meteorologica,2013-04-08 06:08:00,
2013-04-08 02:13:00,61.6,47.3,30.06,South,189,0.5,2.3,59,0.00,,,0.00,Meteorologica,2013-04-08 06:13:00,
2013-04-08 02:18:00,61.5,47.3,30.06,South,189,0.0,0.0,59,0.00,,,0.00,Meteorologica,2013-04-08 06:18:00,
2013-04-08 02:23:00,61.5,47.6,30.06,SSW,200,2.0,2.5,59,0.00,,,0.00,Meteorologica,2013-04-08 06:23:00,
2013-04-08 02:28:00,61.3,47.7,30.06,SSW,199,1.9,2.9,60,0.00,,,0.00,Meteorologica,2013-04-08 06:28:00,
2013-04-08 02:34:00,61.2,47.8,30.06,South,184,1.9,3.1,61,0.00,,,0.00,Meteorologica,2013-04-08 06:34:00,
2013-04-08 02:39:00,60.9,47.8,30.06,South,184,0.0,2.6,61,0.00,,,0.00,Meteorologica,2013-04-08 06:39:00,
2013-04-08 02:44:00,60.9,47.9,30.06,SSE,159,1.4,3.0,61,0.00,,,0.00,Meteorologica,2013-04-08 06:44:00,
2013-04-08 02:49:00,60.7,47.8,30.05,SSW,204,0.5,3.0,62,0.00,,,0.00,Meteorologica,2013-04-08 06:49:00,
2013-04-08 02:54:00,61.0,48.0,30.06,SSW,199,2.1,3.2,62,0.00,,,0.00,Meteorologica,2013-04-08 06:54:00,
2013-04-08 02:59:00,61.1,48.2,30.06,SW,214,2.3,3.9,62,0.00,,,0.00,Meteorologica,2013-04-08 06:59:00,
2013-04-08 03:04:00,61.0,48.1,30.06,SSW,195,2.0,4.9,62,0.00,,,0.00,Meteorologica,2013-04-08 07:04:00,
2013-04-08 03:09:00,61.1,48.1,30.06,SSW,197,2.0,4.2,61,0.00,,,0.00,Meteorologica,2013-04-08 07:09:00,
2013-04-08 03:14:00,61.3,48.1,30.06,SSW,197,1.7,5.1,61,0.00,,,0.00,Meteorologica,2013-04-08 07:14:00,
2013-04-08 03:19:00,61.4,48.2,30.05,SSW,193,2.5,4.5,61,0.00,,,0.00,Meteorologica,2013-04-08 07:19:00,
2013-04-08 03:24:00,61.4,48.3,30.05,SSW,200,1.5,4.2,61,0.00,,,0.00,Meteorologica,2013-04-08 07:24:00,
2013-04-08 03:29:00,61.4,48.3,30.05,SSW,195,1.8,4.5,61,0.00,,,0.00,Meteorologica,2013-04-08 07:29:00,
2013-04-08 03:34:00,61.4,48.1,30.05,South,172,1.0,2.9,61,0.00,,,0.00,Meteorologica,2013-04-08 07:34:00,
2013-04-08 03:40:00,61.3,48.1,30.05,South,182,1.4,3.7,61,0.00,,,0.00,Meteorologica,2013-04-08 07:40:00,
2013-04-08 03:45:00,61.2,47.9,30.05,SSW,196,2.0,3.3,61,0.00,,,0.00,Meteorologica,2013-04-08 07:45:00,
2013-04-08 03:50:00,61.2,47.9,30.05,South,190,2.0,6.3,61,0.00,,,0.00,Meteorologica,2013-04-08 07:50:00,
2013-04-08 03:55:00,61.1,47.8,30.05,South,189,3.2,7.0,61,0.00,,,0.00,Meteorologica,2013-04-08 07:55:00,
2013-04-08 04:00:00,61.3,48.0,30.04,SSW,197,1.3,6.1,61,0.00,,,0.00,Meteorologica,2013-04-08 08:00:00,
2013-04-08 04:05:00,61.2,47.9,30.04,SSE,165,2.5,5.4,61,0.00,,,0.00,Meteorologica,2013-04-08 08:05:00,
2013-04-08 04:10:00,61.3,48.1,30.04,SSW,198,2.6,6.8,61,0.00,,,0.00,Meteorologica,2013-04-08 08:10:00,
2013-04-08 04:15:00,61.2,48.0,30.04,SSE,160,0.6,6.3,61,0.00,,,0.00,Meteorologica,2013-04-08 08:15:00,
2013-04-08 04:20:00,61.2,48.0,30.05,South,183,1.9,4.3,61,0.00,,,0.00,Meteorologica,2013-04-08 08:20:00,
2013-04-08 04:25:00,61.2,48.0,30.05,SSW,196,0.0,5.8,61,0.00,,,0.00,Meteorologica,2013-04-08 08:25:00,
2013-04-08 04:30:00,61.2,48.0,30.05,SSW,194,1.6,5.3,61,0.00,,,0.00,Meteorologica,2013-04-08 08:30:00,
2013-04-08 04:35:00,61.2,48.2,30.05,SSW,213,2.7,4.4,61,0.00,,,0.00,Meteorologica,2013-04-08 08:35:00,
2013-04-08 04:40:00,61.2,48.2,30.05,SSW,196,2.2,6.6,62,0.00,,,0.00,Meteorologica,2013-04-08 08:40:00,
2013-04-08 04:45:00,61.0,48.2,30.05,South,177,2.8,5.4,62,0.00,,,0.00,Meteorologica,2013-04-08 08:45:00,
2013-04-08 04:50:00,61.0,48.2,30.05,SSW,209,3.1,6.1,62,0.00,,,0.00,Meteorologica,2013-04-08 08:50:00,
2013-04-08 04:55:00,60.9,48.3,30.05,SSW,197,3.3,6.1,62,0.00,,,0.00,Meteorologica,2013-04-08 08:55:00,
2013-04-08 05:01:00,60.8,48.3,30.05,SSW,192,4.4,6.0,63,0.00,,,0.00,Meteorologica,2013-04-08 09:01:00,
2013-04-08 05:06:00,60.7,48.3,30.05,SSW,207,2.9,6.6,63,0.00,,,0.00,Meteorologica,2013-04-08 09:06:00,
2013-04-08 05:11:00,60.5,48.2,30.05,South,191,3.4,7.3,63,0.00,,,0.00,Meteorologica,2013-04-08 09:11:00,
2013-04-08 05:16:00,60.5,48.4,30.05,South,177,2.0,7.5,64,0.00,,,0.00,Meteorologica,2013-04-08 09:16:00,
2013-04-08 05:21:00,60.4,48.4,30.05,South,188,2.9,5.7,64,0.00,,,0.00,Meteorologica,2013-04-08 09:21:00,
2013-04-08 05:26:00,60.5,48.6,30.06,SSW,199,2.5,6.6,64,0.00,,,0.00,Meteorologica,2013-04-08 09:26:00,
2013-04-08 05:31:00,60.3,48.5,30.06,SSW,199,3.1,5.3,64,0.00,,,0.00,Meteorologica,2013-04-08 09:31:00,
2013-04-08 05:37:00,60.2,48.5,30.06,SW,214,2.6,5.4,64,0.00,,,0.00,Meteorologica,2013-04-08 09:37:00,
2013-04-08 05:42:00,60.1,48.5,30.06,SSW,204,1.3,5.9,65,0.00,,,0.00,Meteorologica,2013-04-08 09:42:00,
2013-04-08 05:47:00,60.1,48.6,30.06,WSW,248,0.0,2.5,65,0.00,,,0.00,Meteorologica,2013-04-08 09:47:00,
2013-04-08 05:52:00,59.8,48.8,30.06,WSW,248,0.0,0.0,66,0.00,,,0.00,Meteorologica,2013-04-08 09:52:00,
2013-04-08 05:57:00,59.6,48.8,30.07,WSW,248,0.0,0.0,67,0.00,,,0.00,Meteorologica,2013-04-08 09:57:00,
2013-04-08 06:02:00,59.5,49.0,30.07,WSW,248,0.0,0.0,67,0.00,,,0.00,Meteorologica,2013-04-08 10:02:00,
2013-04-08 06:07:00,59.3,48.9,30.07,WSW,248,0.0,0.0,68,0.00,,,0.00,Meteorologica,2013-04-08 10:07:00,
2013-04-08 06:13:00,59.1,48.9,30.07,WSW,248,0.0,0.0,68,0.00,,,0.00,Meteorologica,2013-04-08 10:13:00,
2013-04-08 06:18:00,58.9,48.9,30.07,WSW,248,0.0,0.0,69,0.00,,,0.00,Meteorologica,2013-04-08 10:18:00,
2013-04-08 06:23:00,58.8,48.9,30.07,WSW,248,0.0,0.0,69,0.00,,,0.00,Meteorologica,2013-04-08 10:23:00,
2013-04-08 06:28:00,58.7,49.1,30.07,WSW,248,0.0,0.0,70,0.00,,,0.00,Meteorologica,2013-04-08 10:28:00,
2013-04-08 06:33:00,58.3,49.0,30.08,WSW,248,0.0,0.0,70,0.00,,,0.00,Meteorologica,2013-04-08 10:33:00,
2013-04-08 06:39:00,58.2,49.2,30.08,WSW,248,0.0,0.0,71,0.00,,,0.00,Meteorologica,2013-04-08 10:39:00,
2013-04-08 06:44:00,58.0,49.3,30.08,WSW,248,0.0,0.0,72,0.00,,,0.00,Meteorologica,2013-04-08 10:44:00,
2013-04-08 06:49:00,57.9,49.6,30.08,SSW,196,0.0,0.9,73,0.00,,,0.00,Meteorologica,2013-04-08 10:49:00,
2013-04-08 06:54:00,57.7,49.7,30.09,South,191,0.9,1.4,74,0.00,,,0.00,Meteorologica,2013-04-08 10:54:00,
2013-04-08 06:59:00,57.7,50.0,30.09,SE,146,0.6,2.4,75,0.00,,,0.00,Meteorologica,2013-04-08 10:59:00,
2013-04-08 07:04:00,57.7,50.4,30.09,SW,223,1.7,3.6,76,0.00,,,0.00,Meteorologica,2013-04-08 11:04:00,
2013-04-08 07:09:00,57.6,50.4,30.09,SW,214,1.9,4.1,76,0.00,,,0.00,Meteorologica,2013-04-08 11:09:00,
2013-04-08 07:14:00,57.5,50.5,30.09,SSW,199,2.2,5.2,77,0.00,,,0.00,Meteorologica,2013-04-08 11:14:00,
2013-04-08 07:19:00,57.7,50.9,30.09,SW,220,1.0,3.0,77,0.00,,,0.00,Meteorologica,2013-04-08 11:19:00,
2013-04-08 07:25:00,57.7,51.0,30.10,South,190,1.4,3.0,78,0.00,,,0.00,Meteorologica,2013-04-08 11:25:00,
2013-04-08 07:30:00,57.8,51.2,30.09,SSW,197,0.6,3.6,78,0.00,,,0.00,Meteorologica,2013-04-08 11:30:00,
2013-04-08 07:35:00,57.8,51.2,30.10,SSW,207,2.2,2.5,78,0.00,,,0.00,Meteorologica,2013-04-08 11:35:00,
2013-04-08 07:40:00,58.0,51.5,30.10,SSW,206,2.5,4.6,78,0.00,,,0.00,Meteorologica,2013-04-08 11:40:00,
2013-04-08 07:45:00,58.2,51.6,30.10,South,188,0.7,4.2,78,0.00,,,0.00,Meteorologica,2013-04-08 11:45:00,
2013-04-08 07:51:00,58.2,51.6,30.10,SSW,210,1.7,2.5,78,0.00,,,0.00,Meteorologica,2013-04-08 11:51:00,
2013-04-08 07:56:00,58.4,51.8,30.11,South,191,0.3,2.4,78,0.00,,,0.00,Meteorologica,2013-04-08 11:56:00,
2013-04-08 08:01:00,58.4,51.7,30.11,South,176,0.0,1.8,78,0.00,,,0.00,Meteorologica,2013-04-08 12:01:00,
2013-04-08 08:06:00,58.6,51.8,30.11,SSW,193,0.3,1.4,77,0.00,,,0.00,Meteorologica,2013-04-08 12:06:00,
2013-04-08 08:11:00,58.6,52.0,30.11,South,186,0.2,0.9,78,0.00,,,0.00,Meteorologica,2013-04-08 12:11:00,
2013-04-08 08:17:00,58.6,52.1,30.10,South,187,0.0,3.2,78,0.00,,,0.00,Meteorologica,2013-04-08 12:17:00,
2013-04-08 08:22:00,58.7,52.6,30.10,South,191,0.7,2.1,80,0.00,,,0.00,Meteorologica,2013-04-08 12:22:00,
2013-04-08 08:27:00,59.1,53.2,30.10,SSW,206,0.4,1.7,80,0.00,,,0.00,Meteorologica,2013-04-08 12:27:00,
2013-04-08 08:32:00,59.4,53.6,30.10,SSW,200,0.0,5.9,80,0.00,,,0.00,Meteorologica,2013-04-08 12:32:00,
2013-04-08 08:37:00,59.7,53.7,30.10,SSW,207,0.0,5.7,80,0.00,,,0.00,Meteorologica,2013-04-08 12:37:00,
2013-04-08 08:42:00,60.2,53.6,30.10,WSW,242,0.0,3.0,78,0.00,,,0.00,Meteorologica,2013-04-08 12:42:00,
2013-04-08 08:47:00,60.5,53.2,30.10,WSW,242,0.0,1.8,76,0.00,,,0.00,Meteorologica,2013-04-08 12:47:00,
2013-04-08 08:52:00,61.2,53.8,30.10,WSW,242,0.0,0.0,76,0.00,,,0.00,Meteorologica,2013-04-08 12:52:00,
2013-04-08 08:57:00,61.8,53.1,30.11,South,172,0.9,2.7,72,0.00,,,0.00,Meteorologica,2013-04-08 12:57:00,
2013-04-08 09:02:00,62.7,52.9,30.11,South,186,0.0,2.6,69,0.00,,,0.00,Meteorologica,2013-04-08 13:02:00,
2013-04-08 09:07:00,63.3,53.1,30.11,South,186,0.0,0.0,69,0.00,,,0.00,Meteorologica,2013-04-08 13:07:00,
2013-04-08 09:12:00,64.1,53.5,30.11,WSW,251,3.4,3.4,68,0.00,,,0.00,Meteorologica,2013-04-08 13:12:00,
2013-04-08 09:17:00,65.2,54.2,30.11,SW,217,1.0,4.9,67,0.00,,,0.00,Meteorologica,2013-04-08 13:17:00,
2013-04-08 09:22:00,66.3,54.1,30.11,SSW,197,1.4,3.5,64,0.00,,,0.00,Meteorologica,2013-04-08 13:22:00,
2013-04-08 09:27:00,67.2,53.6,30.11,ENE,67,4.4,6.1,61,0.00,,,0.00,Meteorologica,2013-04-08 13:27:00,
2013-04-08 09:32:00,67.7,53.9,30.11,SSW,192,6.1,8.9,61,0.00,,,0.00,Meteorologica,2013-04-08 13:32:00,
2013-04-08 09:37:00,67.9,54.3,30.11,SW,229,3.0,10.1,61,0.00,,,0.00,Meteorologica,2013-04-08 13:37:00,
2013-04-08 09:42:00,67.8,54.3,30.11,SSE,166,2.6,8.6,61,0.00,,,0.00,Meteorologica,2013-04-08 13:42:00,
2013-04-08 09:47:00,67.9,54.6,30.11,SSE,168,4.7,8.9,62,0.00,,,0.00,Meteorologica,2013-04-08 13:47:00,
2013-04-08 09:52:00,68.5,54.8,30.11,South,187,1.7,7.2,61,0.00,,,0.00,Meteorologica,2013-04-08 13:52:00,
2013-04-08 09:58:00,69.5,54.9,30.11,South,180,2.0,8.6,59,0.00,,,0.00,Meteorologica,2013-04-08 13:58:00,
2013-04-08 10:03:00,70.0,54.4,30.11,SSW,200,6.4,9.7,57,0.00,,,0.00,Meteorologica,2013-04-08 14:03:00,
2013-04-08 10:08:00,70.7,54.3,30.11,SSW,210,8.5,13.8,55,0.00,,,0.00,Meteorologica,2013-04-08 14:08:00,
2013-04-08 10:13:00,71.5,54.6,30.11,SSE,152,5.9,12.8,54,0.00,,,0.00,Meteorologica,2013-04-08 14:13:00,
2013-04-08 10:18:00,72.1,54.5,30.11,SSE,159,6.8,12.3,53,0.00,,,0.00,Meteorologica,2013-04-08 14:18:00,
2013-04-08 10:23:00,72.6,54.2,30.11,SSE,160,4.7,7.4,52,0.00,,,0.00,Meteorologica,2013-04-08 14:23:00,
2013-04-08 10:28:00,73.0,54.6,30.11,SSW,199,2.6,8.7,52,0.00,,,0.00,Meteorologica,2013-04-08 14:28:00,
2013-04-08 10:33:00,73.2,54.2,30.11,SSW,213,3.1,10.7,51,0.00,,,0.00,Meteorologica,2013-04-08 14:33:00,
2013-04-08 10:38:00,73.2,54.3,30.11,SSW,195,5.6,8.9,51,0.00,,,0.00,Meteorologica,2013-04-08 14:38:00,
2013-04-08 10:43:00,73.3,54.2,30.11,SSW,211,6.3,11.1,51,0.00,,,0.00,Meteorologica,2013-04-08 14:43:00,
2013-04-08 10:48:00,73.1,54.2,30.11,SW,215,4.2,11.4,51,0.00,,,0.00,Meteorologica,2013-04-08 14:48:00,
2013-04-08 10:53:00,73.4,54.3,30.11,SSE,152,5.2,10.8,51,0.00,,,0.00,Meteorologica,2013-04-08 14:53:00,
2013-04-08 10:58:00,73.7,54.3,30.11,SW,217,4.8,11.7,50,0.00,,,0.00,Meteorologica,2013-04-08 14:58:00,
2013-04-08 11:03:00,74.1,53.8,30.11,South,185,4.2,15.2,49,0.00,,,0.00,Meteorologica,2013-04-08 15:03:00,
2013-04-08 11:08:00,74.7,53.8,30.11,SE,142,9.0,13.7,48,0.00,,,0.00,Meteorologica,2013-04-08 15:08:00,
2013-04-08 11:13:00,75.2,53.9,30.11,SW,215,8.3,16.1,47,0.00,,,0.00,Meteorologica,2013-04-08 15:13:00,
2013-04-08 11:18:00,75.3,53.6,30.11,SSW,199,9.2,13.8,46,0.00,,,0.00,Meteorologica,2013-04-08 15:18:00,
2013-04-08 11:23:00,75.2,53.7,30.11,SSW,196,7.5,17.9,47,0.00,,,0.00,Meteorologica,2013-04-08 15:23:00,
2013-04-08 11:28:00,75.0,53.4,30.12,South,179,6.1,13.3,46,0.00,,,0.00,Meteorologica,2013-04-08 15:28:00,
2013-04-08 11:33:00,74.3,53.5,30.12,SW,217,6.7,10.7,48,0.00,,,0.00,Meteorologica,2013-04-08 15:33:00,
2013-04-08 11:39:00,74.0,53.6,30.12,SW,232,3.3,12.0,48,0.00,,,0.00,Meteorologica,2013-04-08 15:39:00,
2013-04-08 11:44:00,73.9,53.6,30.12,South,178,6.1,13.2,49,0.00,,,0.00,Meteorologica,2013-04-08 15:44:00,
2013-04-08 11:49:00,73.8,53.1,30.12,South,188,8.3,14.2,48,0.00,,,0.00,Meteorologica,2013-04-08 15:49:00,
2013-04-08 11:54:00,74.2,53.5,30.12,WSW,241,3.4,14.4,48,0.00,,,0.00,Meteorologica,2013-04-08 15:54:00,
2013-04-08 11:59:00,74.8,52.8,30.12,SSE,155,4.3,16.4,46,0.00,,,0.00,Meteorologica,2013-04-08 15:59:00,
2013-04-08 12:04:00,75.2,53.2,30.12,South,183,2.8,10.8,46,0.00,,,0.00,Meteorologica,2013-04-08 16:04:00,
2013-04-08 12:09:00,75.2,53.5,30.13,SSW,198,6.8,15.1,46,0.00,,,0.00,Meteorologica,2013-04-08 16:09:00,
2013-04-08 12:15:00,75.6,52.9,30.12,SW,221,7.2,14.7,45,0.00,,,0.00,Meteorologica,2013-04-08 16:15:00,
2013-04-08 12:20:00,75.5,52.9,30.12,SSW,194,5.3,13.9,45,0.00,,,0.00,Meteorologica,2013-04-08 16:20:00,
2013-04-08 12:25:00,75.3,52.7,30.11,SSW,200,8.3,15.1,45,0.00,,,0.00,Meteorologica,2013-04-08 16:25:00,
2013-04-08 12:30:00,75.2,53.6,30.11,SSW,200,3.2,15.4,47,0.00,,,0.00,Meteorologica,2013-04-08 16:30:00,
2013-04-08 12:35:00,75.6,52.6,30.11,South,189,8.2,10.8,44,0.00,,,0.00,Meteorologica,2013-04-08 16:35:00,
2013-04-08 12:40:00,75.3,52.6,30.11,South,184,5.4,12.7,45,0.00,,,0.00,Meteorologica,2013-04-08 16:40:00,
2013-04-08 12:45:00,75.4,52.8,30.11,South,177,4.8,13.5,45,0.00,,,0.00,Meteorologica,2013-04-08 16:45:00,
2013-04-08 12:50:00,75.2,52.7,30.11,SSE,155,5.5,14.8,45,0.00,,,0.00,Meteorologica,2013-04-08 16:50:00,
2013-04-08 12:55:00,74.7,52.7,30.11,South,176,6.9,17.2,46,0.00,,,0.00,Meteorologica,2013-04-08 16:55:00,
2013-04-08 13:00:00,74.5,52.6,30.11,SSW,204,5.5,18.9,46,0.00,,,0.00,Meteorologica,2013-04-08 17:00:00,
2013-04-08 13:05:00,74.5,53.2,30.11,SE,139,3.3,10.3,47,0.00,,,0.00,Meteorologica,2013-04-08 17:05:00,
2013-04-08 13:10:00,75.2,53.2,30.11,SSW,200,8.3,15.4,46,0.00,,,0.00,Meteorologica,2013-04-08 17:10:00,
2013-04-08 13:16:00,75.3,52.6,30.10,SSW,204,8.6,18.4,45,0.00,,,0.00,Meteorologica,2013-04-08 17:16:00,
2013-04-08 13:21:00,75.1,52.4,30.10,South,178,6.5,17.4,45,0.00,,,0.00,Meteorologica,2013-04-08 17:21:00,
2013-04-08 13:26:00,74.8,52.6,30.10,South,182,6.9,10.9,45,0.00,,,0.00,Meteorologica,2013-04-08 17:26:00,
2013-04-08 13:31:00,74.1,52.4,30.10,SSW,213,6.2,13.9,46,0.00,,,0.00,Meteorologica,2013-04-08 17:31:00,
2013-04-08 13:37:00,74.3,52.8,30.10,South,190,6.9,14.3,47,0.00,,,0.00,Meteorologica,2013-04-08 17:37:00,
2013-04-08 13:42:00,74.3,52.7,30.09,SSW,192,6.5,11.5,46,0.00,,,0.00,Meteorologica,2013-04-08 17:42:00,
2013-04-08 13:47:00,74.6,52.8,30.09,SSW,212,7.7,11.2,46,0.00,,,0.00,Meteorologica,2013-04-08 17:47:00,
2013-04-08 13:52:00,75.2,53.3,30.09,SSW,195,6.2,11.3,46,0.00,,,0.00,Meteorologica,2013-04-08 17:52:00,
2013-04-08 13:58:00,75.8,52.3,30.09,SSW,196,4.7,15.8,44,0.00,,,0.00,Meteorologica,2013-04-08 17:58:00,
2013-04-08 14:03:00,75.9,52.2,30.09,SE,142,7.7,13.9,43,0.00,,,0.00,Meteorologica,2013-04-08 18:03:00,
2013-04-08 14:08:00,75.3,52.2,30.09,South,184,5.4,14.6,44,0.00,,,0.00,Meteorologica,2013-04-08 18:08:00,
2013-04-08 14:13:00,75.0,52.2,30.09,SSE,158,5.0,12.1,45,0.00,,,0.00,Meteorologica,2013-04-08 18:13:00,
2013-04-08 14:18:00,75.0,53.4,30.09,SSW,203,5.2,9.9,47,0.00,,,0.00,Meteorologica,2013-04-08 18:18:00,
2013-04-08 14:23:00,75.3,52.3,30.09,SSE,158,8.7,8.7,44,0.00,,,0.00,Meteorologica,2013-04-08 18:23:00,
2013-04-08 14:28:00,75.7,52.4,30.09,SW,215,7.2,17.2,43,0.00,,,0.00,Meteorologica,2013-04-08 18:28:00,
2013-04-08 14:33:00,75.9,53.5,30.09,SW,221,4.4,13.7,45,0.00,,,0.00,Meteorologica,2013-04-08 18:33:00,
2013-04-08 14:38:00,76.7,52.6,30.08,South,189,5.9,9.9,43,0.00,,,0.00,Meteorologica,2013-04-08 18:38:00,
2013-04-08 14:43:00,77.3,51.3,30.08,SSW,192,7.7,17.7,40,0.00,,,0.00,Meteorologica,2013-04-08 18:43:00,
2013-04-08 14:48:00,77.9,52.7,30.08,East,93,8.4,17.4,41,0.00,,,0.00,Meteorologica,2013-04-08 18:48:00,
2013-04-08 14:53:00,78.4,52.0,30.07,SSW,199,4.5,12.5,40,0.00,,,0.00,Meteorologica,2013-04-08 18:53:00,
2013-04-08 14:58:00,78.9,52.1,30.07,SE,138,5.1,11.4,39,0.00,,,0.00,Meteorologica,2013-04-08 18:58:00,
2013-04-08 15:03:00,78.8,51.7,30.07,WSW,240,7.5,12.5,39,0.00,,,0.00,Meteorologica,2013-04-08 19:03:00,
2013-04-08 15:08:00,78.5,52.0,30.07,South,189,10.5,13.0,39,0.00,,,0.00,Meteorologica,2013-04-08 19:08:00,
2013-04-08 15:13:00,78.2,51.9,30.07,SW,222,6.2,11.8,40,0.00,,,0.00,Meteorologica,2013-04-08 19:13:00,
2013-04-08 15:18:00,77.9,51.5,30.07,SW,215,8.2,12.5,39,0.00,,,0.00,Meteorologica,2013-04-08 19:18:00,
2013-04-08 15:23:00,77.9,52.0,30.07,SW,215,5.5,14.8,39,0.00,,,0.00,Meteorologica,2013-04-08 19:23:00,
2013-04-08 15:28:00,78.0,51.8,30.07,SSW,208,5.8,14.9,40,0.00,,,0.00,Meteorologica,2013-04-08 19:28:00,
2013-04-08 15:33:00,77.8,51.1,30.07,SSE,159,5.9,12.5,39,0.00,,,0.00,Meteorologica,2013-04-08 19:33:00,
2013-04-08 15:38:00,77.5,51.6,30.07,SSW,211,6.8,12.2,40,0.00,,,0.00,Meteorologica,2013-04-08 19:38:00,
2013-04-08 15:43:00,77.2,51.3,30.07,SW,229,5.1,14.7,40,0.00,,,0.00,Meteorologica,2013-04-08 19:43:00,
2013-04-08 15:48:00,76.9,51.4,30.07,South,181,2.3,8.2,41,0.00,,,0.00,Meteorologica,2013-04-08 19:48:00,
2013-04-08 15:53:00,76.8,51.1,30.07,SSW,209,7.4,12.2,40,0.00,,,0.00,Meteorologica,2013-04-08 19:53:00,
2013-04-08 15:58:00,76.8,51.6,30.07,South,190,5.9,12.7,41,0.00,,,0.00,Meteorologica,2013-04-08 19:58:00,
2013-04-08 16:03:00,76.5,51.2,30.07,South,189,2.7,12.4,41,0.00,,,0.00,Meteorologica,2013-04-08 20:03:00,
2013-04-08 16:08:00,76.2,51.0,30.06,South,175,5.8,11.0,41,0.00,,,0.00,Meteorologica,2013-04-08 20:08:00,
2013-04-08 16:13:00,76.3,51.2,30.06,SW,231,4.5,10.2,41,0.00,,,0.00,Meteorologica,2013-04-08 20:13:00,
2013-04-08 16:18:00,76.4,51.2,30.06,SSW,203,3.5,10.2,41,0.00,,,0.00,Meteorologica,2013-04-08 20:18:00,
2013-04-08 16:23:00,76.5,51.3,30.06,SSE,156,4.6,8.4,41,0.00,,,0.00,Meteorologica,2013-04-08 20:23:00,
2013-04-08 16:28:00,76.7,51.0,30.06,South,172,6.6,11.5,40,0.00,,,0.00,Meteorologica,2013-04-08 20:28:00,
2013-04-08 16:33:00,76.8,51.3,30.06,South,183,5.8,9.6,41,0.00,,,0.00,Meteorologica,2013-04-08 20:33:00,
2013-04-08 16:38:00,76.7,51.0,30.06,South,191,6.7,12.3,40,0.00,,,0.00,Meteorologica,2013-04-08 20:38:00,
2013-04-08 16:43:00,76.7,50.9,30.06,SW,218,6.6,12.3,40,0.00,,,0.00,Meteorologica,2013-04-08 20:43:00,
2013-04-08 16:48:00,76.6,51.1,30.06,SSW,207,7.9,12.3,40,0.00,,,0.00,Meteorologica,2013-04-08 20:48:00,
2013-04-08 16:53:00,76.4,51.1,30.06,SSW,207,7.1,10.4,41,0.00,,,0.00,Meteorologica,2013-04-08 20:53:00,
2013-04-08 16:58:00,76.4,51.1,30.06,SSW,208,7.1,11.2,41,0.00,,,0.00,Meteorologica,2013-04-08 20:58:00,
2013-04-08 17:04:00,76.3,51.4,30.06,SSW,193,4.0,12.6,41,0.00,,,0.00,Meteorologica,2013-04-08 21:04:00,
2013-04-08 17:09:00,76.4,51.4,30.05,South,182,2.5,9.1,42,0.00,,,0.00,Meteorologica,2013-04-08 21:09:00,
2013-04-08 17:14:00,76.6,52.2,30.05,SSW,199,1.4,8.9,42,0.00,,,0.00,Meteorologica,2013-04-08 21:14:00,
2013-04-08 17:19:00,76.8,52.1,30.05,South,188,4.5,4.5,42,0.00,,,0.00,Meteorologica,2013-04-08 21:19:00,
2013-04-08 17:24:00,77.2,51.6,30.05,SW,235,6.4,11.4,41,0.00,,,0.00,Meteorologica,2013-04-08 21:24:00,
2013-04-08 17:30:00,77.4,51.9,30.05,SSW,194,7.0,10.4,41,0.00,,,0.00,Meteorologica,2013-04-08 21:30:00,
2013-04-08 17:35:00,77.5,51.4,30.05,SE,124,3.9,10.5,40,0.00,,,0.00,Meteorologica,2013-04-08 21:35:00,
2013-04-08 17:40:00,77.7,51.9,30.05,South,173,3.6,13.9,40,0.00,,,0.00,Meteorologica,2013-04-08 21:40:00,
2013-04-08 17:45:00,77.8,52.0,30.04,SSW,196,3.9,10.7,40,0.00,,,0.00,Meteorologica,2013-04-08 21:45:00,
2013-04-08 17:50:00,77.7,51.3,30.04,SW,221,7.7,12.7,39,0.00,,,0.00,Meteorologica,2013-04-08 21:50:00,
2013-04-08 17:55:00,77.5,51.6,30.04,SE,141,7.2,12.8,40,0.00,,,0.00,Meteorologica,2013-04-08 21:55:00,
2013-04-08 18:00:00,77.5,50.9,30.04,SW,214,6.2,12.6,39,0.00,,,0.00,Meteorologica,2013-04-08 22:00:00,
2013-04-08 18:05:00,77.3,50.9,30.04,South,180,6.4,11.4,39,0.00,,,0.00,Meteorologica,2013-04-08 22:05:00,
2013-04-08 18:10:00,77.2,50.8,30.04,SSW,202,6.0,14.6,39,0.00,,,0.00,Meteorologica,2013-04-08 22:10:00,
2013-04-08 18:15:00,77.1,50.4,30.04,South,177,8.9,14.4,39,0.00,,,0.00,Meteorologica,2013-04-08 22:15:00,
2013-04-08 18:20:00,76.9,50.2,30.04,SSW,192,9.3,13.8,39,0.00,,,0.00,Meteorologica,2013-04-08 22:20:00,
2013-04-08 18:25:00,76.6,50.3,30.03,SSE,168,7.5,12.3,39,0.00,,,0.00,Meteorologica,2013-04-08 22:25:00,
2013-04-08 18:30:00,76.3,50.2,30.03,SE,139,7.7,15.8,40,0.00,,,0.00,Meteorologica,2013-04-08 22:30:00,
2013-04-08 18:35:00,76.3,49.8,30.04,SSW,202,5.5,13.8,39,0.00,,,0.00,Meteorologica,2013-04-08 22:35:00,
2013-04-08 18:40:00,76.3,49.9,30.04,SSW,197,4.0,11.0,39,0.00,,,0.00,Meteorologica,2013-04-08 22:40:00,
2013-04-08 18:45:00,76.4,50.2,30.04,WSW,251,5.0,9.4,39,0.00,,,0.00,Meteorologica,2013-04-08 22:45:00,
2013-04-08 18:50:00,76.4,50.1,30.04,SW,220,2.7,12.3,39,0.00,,,0.00,Meteorologica,2013-04-08 22:50:00,
2013-04-08 18:56:00,76.3,50.4,30.04,South,183,5.8,8.8,40,0.00,,,0.00,Meteorologica,2013-04-08 22:56:00,
2013-04-08 19:01:00,76.1,50.4,30.04,South,191,5.8,10.4,40,0.00,,,0.00,Meteorologica,2013-04-08 23:01:00,
2013-04-08 19:06:00,75.8,50.5,30.04,SW,227,3.2,12.3,41,0.00,,,0.00,Meteorologica,2013-04-08 23:06:00,
2013-04-08 19:11:00,75.5,50.4,30.04,SSW,192,5.0,10.2,41,0.00,,,0.00,Meteorologica,2013-04-08 23:11:00,
2013-04-08 19:17:00,75.3,50.2,30.04,SSW,198,5.9,14.1,41,0.00,,,0.00,Meteorologica,2013-04-08 23:17:00,
2013-04-08 19:22:00,75.0,50.1,30.04,SSW,193,4.9,10.8,41,0.00,,,0.00,Meteorologica,2013-04-08 23:22:00,
2013-04-08 19:27:00,74.8,50.3,30.04,SSW,205,4.3,12.6,42,0.00,,,0.00,Meteorologica,2013-04-08 23:27:00,
2013-04-08 19:32:00,74.7,50.5,30.04,South,179,5.6,10.2,42,0.00,,,0.00,Meteorologica,2013-04-08 23:32:00,
2013-04-08 19:37:00,74.3,50.2,30.05,SSW,203,3.0,10.1,43,0.00,,,0.00,Meteorologica,2013-04-08 23:37:00,
2013-04-08 19:42:00,74.2,50.4,30.04,SSW,197,2.5,9.7,43,0.00,,,0.00,Meteorologica,2013-04-08 23:42:00,
2013-04-08 19:47:00,73.9,50.6,30.04,WSW,247,4.5,7.3,44,0.00,,,0.00,Meteorologica,2013-04-08 23:47:00,
2013-04-08 19:52:00,73.7,50.7,30.04,SSW,200,2.0,9.1,44,0.00,,,0.00,Meteorologica,2013-04-08 23:52:00,
2013-04-08 19:57:00,73.6,50.8,30.04,South,183,0.3,5.5,44,0.00,,,0.00,Meteorologica,2013-04-08 23:57:00,
2013-04-08 20:02:00,73.4,50.8,30.04,SSW,200,2.6,6.1,45,0.00,,,0.00,Meteorologica,2013-04-09 00:02:00,
2013-04-08 20:07:00,73.1,50.7,30.04,South,172,0.1,4.9,45,0.00,,,0.00,Meteorologica,2013-04-09 00:07:00,
2013-04-08 20:13:00,72.9,50.9,30.04,South,179,0.4,3.2,46,0.00,,,0.00,Meteorologica,2013-04-09 00:13:00,
2013-04-08 20:18:00,72.7,51.1,30.04,South,191,1.2,4.8,46,0.00,,,0.00,Meteorologica,2013-04-09 00:18:00,
2013-04-08 20:24:00,72.1,50.8,30.04,South,184,0.0,5.1,47,0.00,,,0.00,Meteorologica,2013-04-09 00:24:00,
2013-04-08 20:29:00,71.8,50.9,30.04,SSW,202,2.1,4.7,47,0.00,,,0.00,Meteorologica,2013-04-09 00:29:00,
2013-04-08 20:34:00,71.7,50.9,30.04,SSW,196,1.6,5.2,47,0.00,,,0.00,Meteorologica,2013-04-09 00:34:00,
2013-04-08 20:39:00,71.5,51.0,30.04,South,183,1.6,2.5,48,0.00,,,0.00,Meteorologica,2013-04-09 00:39:00,
2013-04-08 20:44:00,71.3,51.0,30.04,SSW,204,2.8,3.8,48,0.00,,,0.00,Meteorologica,2013-04-09 00:44:00,
2013-04-08 20:49:00,70.9,50.9,30.04,South,190,3.1,5.7,49,0.00,,,0.00,Meteorologica,2013-04-09 00:49:00,
2013-04-08 20:54:00,70.8,50.9,30.04,SSW,196,4.1,6.4,49,0.00,,,0.00,Meteorologica,2013-04-09 00:54:00,
2013-04-08 20:59:00,70.6,50.8,30.05,SSW,207,2.5,6.3,49,0.00,,,0.00,Meteorologica,2013-04-09 00:59:00,
2013-04-08 21:04:00,70.5,50.9,30.05,SSW,201,2.5,4.7,49,0.00,,,0.00,Meteorologica,2013-04-09 01:04:00,
2013-04-08 21:09:00,70.4,51.0,30.05,SSW,201,3.2,5.1,50,0.00,,,0.00,Meteorologica,2013-04-09 01:09:00,
2013-04-08 21:14:00,70.3,51.0,30.05,SSW,204,3.9,5.8,50,0.00,,,0.00,Meteorologica,2013-04-09 01:14:00,
2013-04-08 21:20:00,70.0,51.0,30.05,SSW,213,4.8,5.0,50,0.00,,,0.00,Meteorologica,2013-04-09 01:20:00,
2013-04-08 21:25:00,69.8,50.9,30.05,SSW,204,2.6,7.3,50,0.00,,,0.00,Meteorologica,2013-04-09 01:25:00,
2013-04-08 21:30:00,69.6,50.9,30.06,SSW,206,3.1,7.2,51,0.00,,,0.00,Meteorologica,2013-04-09 01:30:00,
2013-04-08 21:35:00,69.5,51.0,30.06,SSW,197,2.9,8.0,51,0.00,,,0.00,Meteorologica,2013-04-09 01:35:00,
2013-04-08 21:40:00,69.5,51.0,30.06,South,179,3.7,7.5,51,0.00,,,0.00,Meteorologica,2013-04-09 01:40:00,
2013-04-08 21:45:00,69.4,51.1,30.06,SSW,198,4.4,5.9,52,0.00,,,0.00,Meteorologica,2013-04-09 01:45:00,
2013-04-08 21:50:00,69.2,50.9,30.06,South,181,3.1,7.6,52,0.00,,,0.00,Meteorologica,2013-04-09 01:50:00,
2013-04-08 21:55:00,69.1,51.0,30.06,SSW,194,3.5,6.2,52,0.00,,,0.00,Meteorologica,2013-04-09 01:55:00,
2013-04-08 22:00:00,69.0,50.9,30.06,SSW,205,2.9,6.8,52,0.00,,,0.00,Meteorologica,2013-04-09 02:00:00,
2013-04-08 22:05:00,68.8,50.9,30.06,South,179,4.9,7.1,52,0.00,,,0.00,Meteorologica,2013-04-09 02:05:00,
2013-04-08 22:10:00,68.7,50.8,30.06,SSW,198,3.9,7.4,52,0.00,,,0.00,Meteorologica,2013-04-09 02:10:00,
2013-04-08 22:15:00,68.7,50.8,30.06,SSW,210,4.7,8.9,52,0.00,,,0.00,Meteorologica,2013-04-09 02:15:00,
2013-04-08 22:20:00,68.7,50.9,30.06,SSW,208,2.4,9.5,52,0.00,,,0.00,Meteorologica,2013-04-09 02:20:00,
2013-04-08 22:25:00,68.5,50.7,30.07,SW,219,2.1,6.4,52,0.00,,,0.00,Meteorologica,2013-04-09 02:25:00,
2013-04-08 22:30:00,68.4,50.5,30.07,SSW,204,4.8,5.0,52,0.00,,,0.00,Meteorologica,2013-04-09 02:30:00,
2013-04-08 22:35:00,68.5,50.7,30.07,WSW,238,1.9,8.4,52,0.00,,,0.00,Meteorologica,2013-04-09 02:35:00,
2013-04-08 22:40:00,68.4,50.6,30.07,SSW,203,2.5,7.4,52,0.00,,,0.00,Meteorologica,2013-04-09 02:40:00,
2013-04-08 22:45:00,68.3,50.6,30.07,SSW,204,0.4,5.5,53,0.00,,,0.00,Meteorologica,2013-04-09 02:45:00,
2013-04-08 22:50:00,68.3,50.8,30.07,WSW,251,0.3,2.9,53,0.00,,,0.00,Meteorologica,2013-04-09 02:50:00,
2013-04-08 22:55:00,68.2,51.1,30.07,WSW,244,1.0,3.8,54,0.00,,,0.00,Meteorologica,2013-04-09 02:55:00,
2013-04-08 23:00:00,68.0,51.3,30.07,WSW,241,0.5,3.4,54,0.00,,,0.00,Meteorologica,2013-04-09 03:00:00,
2013-04-08 23:05:00,67.8,51.2,30.07,WSW,241,0.0,2.0,55,0.00,,,0.00,Meteorologica,2013-04-09 03:05:00,
2013-04-08 23:11:00,67.3,50.9,30.07,WSW,241,0.0,0.0,55,0.00,,,0.00,Meteorologica,2013-04-09 03:11:00,
2013-04-08 23:16:00,67.2,51.0,30.07,WSW,241,0.0,0.0,55,0.00,,,0.00,Meteorologica,2013-04-09 03:16:00,
2013-04-08 23:21:00,66.9,50.9,30.08,WSW,241,0.0,0.0,56,0.00,,,0.00,Meteorologica,2013-04-09 03:21:00,
2013-04-08 23:26:00,66.8,51.1,30.08,WSW,241,0.0,0.0,56,0.00,,,0.00,Meteorologica,2013-04-09 03:26:00,
2013-04-08 23:32:00,66.6,51.1,30.08,WSW,241,0.0,0.0,57,0.00,,,0.00,Meteorologica,2013-04-09 03:32:00,
2013-04-08 23:37:00,66.3,51.0,30.08,WSW,241,0.0,0.0,57,0.00,,,0.00,Meteorologica,2013-04-09 03:37:00,
2013-04-08 23:42:00,66.1,50.9,30.08,WSW,241,0.0,0.0,57,0.00,,,0.00,Meteorologica,2013-04-09 03:42:00,
2013-04-08 23:47:00,65.9,51.0,30.08,WSW,241,0.0,0.0,58,0.00,,,0.00,Meteorologica,2013-04-09 03:47:00,
2013-04-08 23:52:00,65.6,51.0,30.08,WSW,241,0.0,0.0,58,0.00,,,0.00,Meteorologica,2013-04-09 03:52:00,
2013-04-08 23:57:00,65.4,51.0,30.08,WSW,241,0.0,0.0,59,0.00,,,0.00,Meteorologica,2013-04-09 03:57:00,